sensor_id;sensor_type;location;lat;lon;timestamp;P1;durP1;ratioP1;P2;durP2;ratioP2
18677;SDS011;9469;51.114;13.914;2023-02-28T00:03:30;7.47;;;5.83;;
18677;SDS011;9469;51.114;13.914;2023-02-28T00:08:36;11.83;;;6.27;;
18677;SDS011;9469;51.114;13.914;2023-02-28T00:13:45;9.20;;;5.47;;
18677;SDS011;9469;51.114;13.914;2023-02-28T00:18:51;8.93;;;5.70;;
18677;SDS011;9469;51.114;13.914;2023-02-28T00:23:57;9.07;;;6.43;;
18677;SDS011;9469;51.114;13.914;2023-02-28T00:29:04;10.93;;;6.33;;
18677;SDS011;9469;51.114;13.914;2023-02-28T00:34:10;9.77;;;6.43;;
18677;SDS011;9469;51.114;13.914;2023-02-28T00:39:15;9.60;;;6.53;;
18677;SDS011;9469;51.114;13.914;2023-02-28T00:44:23;7.70;;;6.73;;
18677;SDS011;9469;51.114;13.914;2023-02-28T00:49:28;8.87;;;6.27;;
18677;SDS011;9469;51.114;13.914;2023-02-28T00:54:33;10.07;;;6.37;;
18677;SDS011;9469;51.114;13.914;2023-02-28T00:59:44;8.67;;;6.33;;
18677;SDS011;9469;51.114;13.914;2023-02-28T01:04:49;10.57;;;6.37;;
18677;SDS011;9469;51.114;13.914;2023-02-28T01:09:54;7.60;;;5.70;;
18677;SDS011;9469;51.114;13.914;2023-02-28T01:15:02;8.03;;;6.83;;
18677;SDS011;9469;51.114;13.914;2023-02-28T01:20:08;8.27;;;6.20;;
18677;SDS011;9469;51.114;13.914;2023-02-28T01:25:15;9.93;;;6.47;;
18677;SDS011;9469;51.114;13.914;2023-02-28T01:30:26;10.23;;;7.07;;
18677;SDS011;9469;51.114;13.914;2023-02-28T01:35:31;12.93;;;6.63;;
18677;SDS011;9469;51.114;13.914;2023-02-28T01:40:36;8.57;;;6.20;;
18677;SDS011;9469;51.114;13.914;2023-02-28T01:45:44;11.63;;;7.00;;
18677;SDS011;9469;51.114;13.914;2023-02-28T01:50:49;11.33;;;7.80;;
18677;SDS011;9469;51.114;13.914;2023-02-28T01:55:54;8.30;;;6.87;;
18677;SDS011;9469;51.114;13.914;2023-02-28T02:01:02;9.03;;;6.40;;
18677;SDS011;9469;51.114;13.914;2023-02-28T02:06:07;8.77;;;6.43;;
18677;SDS011;9469;51.114;13.914;2023-02-28T02:11:12;9.83;;;7.77;;
18677;SDS011;9469;51.114;13.914;2023-02-28T02:16:34;10.73;;;6.67;;
18677;SDS011;9469;51.114;13.914;2023-02-28T02:21:56;7.90;;;6.20;;
18677;SDS011;9469;51.114;13.914;2023-02-28T02:27:26;11.67;;;6.50;;
18677;SDS011;9469;51.114;13.914;2023-02-28T02:38:27;9.90;;;6.97;;
18677;SDS011;9469;51.114;13.914;2023-02-28T02:43:38;8.50;;;6.70;;
18677;SDS011;9469;51.114;13.914;2023-02-28T02:48:49;12.27;;;6.93;;
18677;SDS011;9469;51.114;13.914;2023-02-28T02:54:00;11.33;;;7.43;;
18677;SDS011;9469;51.114;13.914;2023-02-28T02:59:11;10.67;;;6.93;;
18677;SDS011;9469;51.114;13.914;2023-02-28T03:04:23;9.40;;;6.83;;
18677;SDS011;9469;51.114;13.914;2023-02-28T03:09:35;10.20;;;7.10;;
18677;SDS011;9469;51.114;13.914;2023-02-28T03:14:43;9.53;;;7.60;;
18677;SDS011;9469;51.114;13.914;2023-02-28T03:20:02;10.30;;;7.30;;
18677;SDS011;9469;51.114;13.914;2023-02-28T03:25:16;12.03;;;8.10;;
18677;SDS011;9469;51.114;13.914;2023-02-28T03:30:26;11.00;;;8.40;;
18677;SDS011;9469;51.114;13.914;2023-02-28T03:35:39;15.77;;;8.50;;
18677;SDS011;9469;51.114;13.914;2023-02-28T03:40:51;10.10;;;7.80;;
18677;SDS011;9469;51.114;13.914;2023-02-28T03:46:01;11.30;;;7.93;;
18677;SDS011;9469;51.114;13.914;2023-02-28T03:51:14;10.07;;;7.37;;
18677;SDS011;9469;51.114;13.914;2023-02-28T03:56:26;13.50;;;7.70;;
18677;SDS011;9469;51.114;13.914;2023-02-28T04:01:35;9.77;;;7.60;;
18677;SDS011;9469;51.114;13.914;2023-02-28T04:06:43;10.97;;;8.20;;
18677;SDS011;9469;51.114;13.914;2023-02-28T04:11:54;8.53;;;6.60;;
18677;SDS011;9469;51.114;13.914;2023-02-28T04:17:00;9.33;;;8.03;;
18677;SDS011;9469;51.114;13.914;2023-02-28T04:22:05;11.47;;;8.20;;
18677;SDS011;9469;51.114;13.914;2023-02-28T04:27:12;9.97;;;8.40;;
18677;SDS011;9469;51.114;13.914;2023-02-28T04:32:17;13.87;;;8.77;;
18677;SDS011;9469;51.114;13.914;2023-02-28T04:37:23;9.30;;;8.27;;
18677;SDS011;9469;51.114;13.914;2023-02-28T04:42:34;17.93;;;10.57;;
18677;SDS011;9469;51.114;13.914;2023-02-28T04:47:43;14.63;;;9.47;;
18677;SDS011;9469;51.114;13.914;2023-02-28T04:52:48;13.67;;;9.37;;
18677;SDS011;9469;51.114;13.914;2023-02-28T04:57:55;13.03;;;8.53;;
18677;SDS011;9469;51.114;13.914;2023-02-28T05:03:00;17.53;;;12.93;;
18677;SDS011;9469;51.114;13.914;2023-02-28T05:08:08;17.07;;;12.00;;
18677;SDS011;9469;51.114;13.914;2023-02-28T05:13:24;11.83;;;9.43;;
18677;SDS011;9469;51.114;13.914;2023-02-28T05:18:29;13.70;;;9.07;;
18677;SDS011;9469;51.114;13.914;2023-02-28T05:23:34;13.27;;;9.40;;
18677;SDS011;9469;51.114;13.914;2023-02-28T05:28:41;16.13;;;11.47;;
18677;SDS011;9469;51.114;13.914;2023-02-28T05:33:46;14.73;;;10.70;;
18677;SDS011;9469;51.114;13.914;2023-02-28T05:38:52;16.83;;;11.57;;
18677;SDS011;9469;51.114;13.914;2023-02-28T05:44:02;19.83;;;12.77;;
18677;SDS011;9469;51.114;13.914;2023-02-28T05:49:07;22.80;;;13.23;;
18677;SDS011;9469;51.114;13.914;2023-02-28T05:54:15;22.70;;;15.60;;
18677;SDS011;9469;51.114;13.914;2023-02-28T05:59:26;19.93;;;14.00;;
18677;SDS011;9469;51.114;13.914;2023-02-28T06:04:31;17.17;;;12.10;;
18677;SDS011;9469;51.114;13.914;2023-02-28T06:09:37;20.63;;;12.40;;
18677;SDS011;9469;51.114;13.914;2023-02-28T06:14:45;17.03;;;14.17;;
18677;SDS011;9469;51.114;13.914;2023-02-28T06:19:50;18.90;;;12.63;;
18677;SDS011;9469;51.114;13.914;2023-02-28T06:24:59;27.77;;;18.73;;
18677;SDS011;9469;51.114;13.914;2023-02-28T06:30:07;24.07;;;17.00;;
18677;SDS011;9469;51.114;13.914;2023-02-28T06:35:14;27.83;;;14.93;;
18677;SDS011;9469;51.114;13.914;2023-02-28T06:40:19;21.37;;;15.07;;
18677;SDS011;9469;51.114;13.914;2023-02-28T06:45:27;25.77;;;14.70;;
18677;SDS011;9469;51.114;13.914;2023-02-28T06:50:34;26.07;;;16.17;;
18677;SDS011;9469;51.114;13.914;2023-02-28T06:55:41;24.20;;;15.17;;
18677;SDS011;9469;51.114;13.914;2023-02-28T07:00:49;20.97;;;13.73;;
18677;SDS011;9469;51.114;13.914;2023-02-28T07:05:55;19.23;;;13.13;;
18677;SDS011;9469;51.114;13.914;2023-02-28T07:11:04;20.17;;;13.47;;
18677;SDS011;9469;51.114;13.914;2023-02-28T07:16:16;21.53;;;14.33;;
18677;SDS011;9469;51.114;13.914;2023-02-28T07:21:23;23.13;;;16.13;;
18677;SDS011;9469;51.114;13.914;2023-02-28T07:26:30;26.87;;;17.73;;
18677;SDS011;9469;51.114;13.914;2023-02-28T07:31:39;25.07;;;14.73;;
18677;SDS011;9469;51.114;13.914;2023-02-28T07:36:44;28.13;;;17.63;;
18677;SDS011;9469;51.114;13.914;2023-02-28T07:41:55;31.73;;;18.73;;
18677;SDS011;9469;51.114;13.914;2023-02-28T07:47:04;27.17;;;18.63;;
18677;SDS011;9469;51.114;13.914;2023-02-28T07:52:09;24.17;;;15.37;;
18677;SDS011;9469;51.114;13.914;2023-02-28T07:57:16;28.53;;;19.17;;
18677;SDS011;9469;51.114;13.914;2023-02-28T08:02:25;18.20;;;13.33;;
18677;SDS011;9469;51.114;13.914;2023-02-28T08:07:30;23.83;;;14.53;;
18677;SDS011;9469;51.114;13.914;2023-02-28T08:12:35;21.53;;;15.87;;
18677;SDS011;9469;51.114;13.914;2023-02-28T08:17:43;30.53;;;17.70;;
18677;SDS011;9469;51.114;13.914;2023-02-28T08:22:48;27.77;;;16.23;;
18677;SDS011;9469;51.114;13.914;2023-02-28T08:27:53;27.83;;;15.00;;
18677;SDS011;9469;51.114;13.914;2023-02-28T08:33:01;19.80;;;12.30;;
18677;SDS011;9469;51.114;13.914;2023-02-28T08:38:06;18.23;;;12.03;;
18677;SDS011;9469;51.114;13.914;2023-02-28T08:43:11;16.20;;;10.73;;
18677;SDS011;9469;51.114;13.914;2023-02-28T08:48:19;18.57;;;11.23;;
18677;SDS011;9469;51.114;13.914;2023-02-28T08:53:24;11.73;;;9.13;;
18677;SDS011;9469;51.114;13.914;2023-02-28T08:58:29;13.73;;;10.30;;
18677;SDS011;9469;51.114;13.914;2023-02-28T09:03:36;11.43;;;8.67;;
18677;SDS011;9469;51.114;13.914;2023-02-28T09:08:42;14.57;;;11.03;;
18677;SDS011;9469;51.114;13.914;2023-02-28T09:13:48;17.67;;;9.70;;
18677;SDS011;9469;51.114;13.914;2023-02-28T09:18:56;17.23;;;9.13;;
18677;SDS011;9469;51.114;13.914;2023-02-28T09:24:02;19.30;;;11.57;;
18677;SDS011;9469;51.114;13.914;2023-02-28T09:29:08;14.67;;;9.03;;
18677;SDS011;9469;51.114;13.914;2023-02-28T09:34:16;13.33;;;10.13;;
18677;SDS011;9469;51.114;13.914;2023-02-28T09:39:21;16.43;;;9.43;;
18677;SDS011;9469;51.114;13.914;2023-02-28T09:44:29;16.17;;;10.33;;
18677;SDS011;9469;51.114;13.914;2023-02-28T09:49:40;12.83;;;8.53;;
18677;SDS011;9469;51.114;13.914;2023-02-28T09:54:47;13.97;;;9.77;;
18677;SDS011;9469;51.114;13.914;2023-02-28T09:59:59;13.40;;;8.97;;
18677;SDS011;9469;51.114;13.914;2023-02-28T10:05:17;12.20;;;9.10;;
18677;SDS011;9469;51.114;13.914;2023-02-28T10:10:26;12.80;;;9.83;;
18677;SDS011;9469;51.114;13.914;2023-02-28T10:15:35;12.43;;;9.00;;
18677;SDS011;9469;51.114;13.914;2023-02-28T10:20:43;14.73;;;9.93;;
18677;SDS011;9469;51.114;13.914;2023-02-28T10:25:53;14.93;;;10.20;;
18677;SDS011;9469;51.114;13.914;2023-02-28T10:31:01;16.30;;;9.50;;
18677;SDS011;9469;51.114;13.914;2023-02-28T10:36:12;15.50;;;9.43;;
18677;SDS011;9469;51.114;13.914;2023-02-28T10:41:27;20.17;;;10.47;;
18677;SDS011;9469;51.114;13.914;2023-02-28T10:46:39;14.60;;;10.20;;
18677;SDS011;9469;51.114;13.914;2023-02-28T10:51:48;13.17;;;9.87;;
18677;SDS011;9469;51.114;13.914;2023-02-28T10:57:07;18.57;;;10.40;;
18677;SDS011;9469;51.114;13.914;2023-02-28T11:07:53;15.00;;;11.43;;
18677;SDS011;9469;51.114;13.914;2023-02-28T11:13:02;22.37;;;11.23;;
18677;SDS011;9469;51.114;13.914;2023-02-28T11:18:15;17.17;;;12.37;;
18677;SDS011;9469;51.114;13.914;2023-02-28T11:23:32;15.57;;;10.23;;
18677;SDS011;9469;51.114;13.914;2023-02-28T11:28:41;13.93;;;9.60;;
18677;SDS011;9469;51.114;13.914;2023-02-28T11:33:47;15.30;;;10.40;;
18677;SDS011;9469;51.114;13.914;2023-02-28T11:38:56;21.53;;;10.77;;
18677;SDS011;9469;51.114;13.914;2023-02-28T11:44:08;14.37;;;10.00;;
18677;SDS011;9469;51.114;13.914;2023-02-28T11:49:30;14.60;;;11.00;;
18677;SDS011;9469;51.114;13.914;2023-02-28T11:54:54;17.97;;;11.13;;
18677;SDS011;9469;51.114;13.914;2023-02-28T12:00:11;22.40;;;11.10;;
18677;SDS011;9469;51.114;13.914;2023-02-28T12:05:34;13.90;;;11.20;;
18677;SDS011;9469;51.114;13.914;2023-02-28T12:10:53;18.30;;;10.60;;
18677;SDS011;9469;51.114;13.914;2023-02-28T12:22:01;17.87;;;11.10;;
18677;SDS011;9469;51.114;13.914;2023-02-28T12:27:29;19.10;;;11.80;;
18677;SDS011;9469;51.114;13.914;2023-02-28T12:32:39;17.40;;;12.03;;
18677;SDS011;9469;51.114;13.914;2023-02-28T12:37:51;24.30;;;13.43;;
18677;SDS011;9469;51.114;13.914;2023-02-28T12:43:05;17.87;;;12.60;;
18677;SDS011;9469;51.114;13.914;2023-02-28T12:48:13;15.33;;;11.30;;
18677;SDS011;9469;51.114;13.914;2023-02-28T12:53:25;17.13;;;12.27;;
18677;SDS011;9469;51.114;13.914;2023-02-28T12:58:39;16.90;;;12.40;;
18677;SDS011;9469;51.114;13.914;2023-02-28T13:03:51;22.60;;;12.93;;
18677;SDS011;9469;51.114;13.914;2023-02-28T13:09:12;17.47;;;11.80;;
18677;SDS011;9469;51.114;13.914;2023-02-28T13:14:25;17.03;;;11.30;;
18677;SDS011;9469;51.114;13.914;2023-02-28T13:19:33;17.97;;;12.50;;
18677;SDS011;9469;51.114;13.914;2023-02-28T13:24:49;25.60;;;16.53;;
18677;SDS011;9469;51.114;13.914;2023-02-28T13:29:58;17.80;;;12.87;;
18677;SDS011;9469;51.114;13.914;2023-02-28T13:40:43;19.37;;;12.27;;
18677;SDS011;9469;51.114;13.914;2023-02-28T13:56:50;19.60;;;12.60;;
18677;SDS011;9469;51.114;13.914;2023-02-28T14:07:44;16.37;;;12.47;;
18677;SDS011;9469;51.114;13.914;2023-02-28T14:12:59;26.57;;;14.20;;
18677;SDS011;9469;51.114;13.914;2023-02-28T14:18:19;18.90;;;11.83;;
18677;SDS011;9469;51.114;13.914;2023-02-28T14:29:17;21.13;;;12.30;;
18677;SDS011;9469;51.114;13.914;2023-02-28T14:34:41;19.03;;;12.73;;
18677;SDS011;9469;51.114;13.914;2023-02-28T14:39:50;16.30;;;11.90;;
18677;SDS011;9469;51.114;13.914;2023-02-28T14:44:57;18.63;;;12.50;;
18677;SDS011;9469;51.114;13.914;2023-02-28T14:50:05;17.27;;;12.50;;
18677;SDS011;9469;51.114;13.914;2023-02-28T14:55:14;17.07;;;12.33;;
18677;SDS011;9469;51.114;13.914;2023-02-28T15:00:24;16.43;;;11.63;;
18677;SDS011;9469;51.114;13.914;2023-02-28T15:05:39;15.50;;;11.73;;
18677;SDS011;9469;51.114;13.914;2023-02-28T15:10:45;17.23;;;12.63;;
18677;SDS011;9469;51.114;13.914;2023-02-28T15:15:57;20.43;;;12.53;;
18677;SDS011;9469;51.114;13.914;2023-02-28T15:21:30;17.37;;;12.27;;
18677;SDS011;9469;51.114;13.914;2023-02-28T15:26:38;21.17;;;14.00;;
18677;SDS011;9469;51.114;13.914;2023-02-28T15:31:46;21.10;;;13.17;;
18677;SDS011;9469;51.114;13.914;2023-02-28T15:37:02;20.63;;;13.40;;
18677;SDS011;9469;51.114;13.914;2023-02-28T15:42:31;20.10;;;13.50;;
18677;SDS011;9469;51.114;13.914;2023-02-28T15:47:36;20.43;;;13.03;;
18677;SDS011;9469;51.114;13.914;2023-02-28T15:52:44;21.67;;;15.73;;
18677;SDS011;9469;51.114;13.914;2023-02-28T15:57:51;27.20;;;15.40;;
18677;SDS011;9469;51.114;13.914;2023-02-28T16:03:00;21.17;;;14.27;;
18677;SDS011;9469;51.114;13.914;2023-02-28T16:08:13;24.03;;;15.13;;
18677;SDS011;9469;51.114;13.914;2023-02-28T16:13:19;19.53;;;14.30;;
18677;SDS011;9469;51.114;13.914;2023-02-28T16:18:27;22.77;;;14.30;;
18677;SDS011;9469;51.114;13.914;2023-02-28T16:23:37;25.53;;;15.07;;
18677;SDS011;9469;51.114;13.914;2023-02-28T16:28:44;16.40;;;11.57;;
18677;SDS011;9469;51.114;13.914;2023-02-28T16:33:49;19.87;;;12.60;;
18677;SDS011;9469;51.114;13.914;2023-02-28T16:39:01;20.07;;;12.67;;
18677;SDS011;9469;51.114;13.914;2023-02-28T16:44:09;20.43;;;13.60;;
18677;SDS011;9469;51.114;13.914;2023-02-28T16:49:19;21.83;;;14.00;;
18677;SDS011;9469;51.114;13.914;2023-02-28T16:54:26;29.97;;;14.27;;
18677;SDS011;9469;51.114;13.914;2023-02-28T16:59:32;26.03;;;16.30;;
18677;SDS011;9469;51.114;13.914;2023-02-28T17:04:37;29.43;;;14.90;;
18677;SDS011;9469;51.114;13.914;2023-02-28T17:09:46;30.27;;;15.00;;
18677;SDS011;9469;51.114;13.914;2023-02-28T17:14:50;29.87;;;16.13;;
18677;SDS011;9469;51.114;13.914;2023-02-28T17:19:56;28.53;;;15.70;;
18677;SDS011;9469;51.114;13.914;2023-02-28T17:25:09;28.80;;;17.67;;
18677;SDS011;9469;51.114;13.914;2023-02-28T17:30:15;41.77;;;25.33;;
18677;SDS011;9469;51.114;13.914;2023-02-28T17:35:23;38.77;;;25.03;;
18677;SDS011;9469;51.114;13.914;2023-02-28T17:40:31;40.10;;;24.23;;
18677;SDS011;9469;51.114;13.914;2023-02-28T17:45:37;32.67;;;22.97;;
18677;SDS011;9469;51.114;13.914;2023-02-28T17:50:42;35.67;;;19.57;;
18677;SDS011;9469;51.114;13.914;2023-02-28T17:55:50;29.27;;;17.97;;
18677;SDS011;9469;51.114;13.914;2023-02-28T18:00:55;29.90;;;18.87;;
18677;SDS011;9469;51.114;13.914;2023-02-28T18:06:01;31.60;;;20.60;;
18677;SDS011;9469;51.114;13.914;2023-02-28T18:11:09;26.23;;;19.40;;
18677;SDS011;9469;51.114;13.914;2023-02-28T18:16:22;29.67;;;19.07;;
18677;SDS011;9469;51.114;13.914;2023-02-28T18:21:28;27.83;;;17.60;;
18677;SDS011;9469;51.114;13.914;2023-02-28T18:26:36;32.03;;;19.70;;
18677;SDS011;9469;51.114;13.914;2023-02-28T18:31:44;28.73;;;18.77;;
18677;SDS011;9469;51.114;13.914;2023-02-28T18:36:50;28.43;;;18.40;;
18677;SDS011;9469;51.114;13.914;2023-02-28T18:41:59;33.40;;;20.73;;
18677;SDS011;9469;51.114;13.914;2023-02-28T18:47:04;30.27;;;18.83;;
18677;SDS011;9469;51.114;13.914;2023-02-28T18:52:12;33.40;;;19.77;;
18677;SDS011;9469;51.114;13.914;2023-02-28T18:57:20;34.70;;;22.13;;
18677;SDS011;9469;51.114;13.914;2023-02-28T19:02:25;44.00;;;23.90;;
18677;SDS011;9469;51.114;13.914;2023-02-28T19:07:33;38.93;;;24.07;;
18677;SDS011;9469;51.114;13.914;2023-02-28T19:12:41;40.97;;;26.67;;
18677;SDS011;9469;51.114;13.914;2023-02-28T19:17:47;43.20;;;25.47;;
18677;SDS011;9469;51.114;13.914;2023-02-28T19:22:53;45.57;;;25.60;;
18677;SDS011;9469;51.114;13.914;2023-02-28T19:28:02;34.93;;;22.07;;
18677;SDS011;9469;51.114;13.914;2023-02-28T19:33:10;32.40;;;20.30;;
18677;SDS011;9469;51.114;13.914;2023-02-28T19:38:16;60.37;;;25.90;;
18677;SDS011;9469;51.114;13.914;2023-02-28T19:43:24;36.57;;;22.57;;
18677;SDS011;9469;51.114;13.914;2023-02-28T19:48:29;41.07;;;25.57;;
18677;SDS011;9469;51.114;13.914;2023-02-28T19:53:36;52.70;;;32.73;;
18677;SDS011;9469;51.114;13.914;2023-02-28T19:58:48;55.63;;;34.13;;
18677;SDS011;9469;51.114;13.914;2023-02-28T20:03:54;44.13;;;29.03;;
18677;SDS011;9469;51.114;13.914;2023-02-28T20:08:59;50.33;;;29.00;;
18677;SDS011;9469;51.114;13.914;2023-02-28T20:14:07;44.13;;;28.00;;
18677;SDS011;9469;51.114;13.914;2023-02-28T20:19:14;46.20;;;27.23;;
18677;SDS011;9469;51.114;13.914;2023-02-28T20:24:19;40.40;;;27.93;;
18677;SDS011;9469;51.114;13.914;2023-02-28T20:29:29;46.07;;;26.90;;
18677;SDS011;9469;51.114;13.914;2023-02-28T20:34:34;47.07;;;24.90;;
18677;SDS011;9469;51.114;13.914;2023-02-28T20:39:39;41.30;;;25.40;;
18677;SDS011;9469;51.114;13.914;2023-02-28T20:44:47;33.50;;;22.37;;
18677;SDS011;9469;51.114;13.914;2023-02-28T20:49:53;44.67;;;24.90;;
18677;SDS011;9469;51.114;13.914;2023-02-28T20:54:58;37.70;;;24.13;;
18677;SDS011;9469;51.114;13.914;2023-02-28T21:00:06;36.37;;;22.73;;
18677;SDS011;9469;51.114;13.914;2023-02-28T21:05:16;40.47;;;23.43;;
18677;SDS011;9469;51.114;13.914;2023-02-28T21:10:21;38.70;;;24.70;;
18677;SDS011;9469;51.114;13.914;2023-02-28T21:15:29;41.33;;;25.20;;
18677;SDS011;9469;51.114;13.914;2023-02-28T21:20:34;38.50;;;23.60;;
18677;SDS011;9469;51.114;13.914;2023-02-28T21:25:39;36.73;;;23.30;;
18677;SDS011;9469;51.114;13.914;2023-02-28T21:30:47;41.27;;;24.03;;
18677;SDS011;9469;51.114;13.914;2023-02-28T21:35:58;41.93;;;25.57;;
18677;SDS011;9469;51.114;13.914;2023-02-28T21:41:06;36.67;;;23.70;;
18677;SDS011;9469;51.114;13.914;2023-02-28T21:46:16;42.77;;;25.23;;
18677;SDS011;9469;51.114;13.914;2023-02-28T21:51:23;44.23;;;25.93;;
18677;SDS011;9469;51.114;13.914;2023-02-28T21:56:31;41.90;;;24.23;;
18677;SDS011;9469;51.114;13.914;2023-02-28T22:01:43;35.50;;;23.33;;
18677;SDS011;9469;51.114;13.914;2023-02-28T22:06:49;43.40;;;27.27;;
18677;SDS011;9469;51.114;13.914;2023-02-28T22:11:56;43.30;;;26.37;;
18677;SDS011;9469;51.114;13.914;2023-02-28T22:17:04;44.00;;;26.83;;
18677;SDS011;9469;51.114;13.914;2023-02-28T22:22:09;39.13;;;23.97;;
18677;SDS011;9469;51.114;13.914;2023-02-28T22:27:14;33.83;;;23.43;;
18677;SDS011;9469;51.114;13.914;2023-02-28T22:32:22;34.70;;;21.50;;
18677;SDS011;9469;51.114;13.914;2023-02-28T22:37:27;34.20;;;22.03;;
18677;SDS011;9469;51.114;13.914;2023-02-28T22:42:32;40.23;;;21.57;;
18677;SDS011;9469;51.114;13.914;2023-02-28T22:47:40;33.30;;;21.20;;
18677;SDS011;9469;51.114;13.914;2023-02-28T22:52:45;36.47;;;22.20;;
18677;SDS011;9469;51.114;13.914;2023-02-28T22:57:50;33.87;;;21.03;;
18677;SDS011;9469;51.114;13.914;2023-02-28T23:02:58;31.53;;;20.13;;
18677;SDS011;9469;51.114;13.914;2023-02-28T23:08:03;39.40;;;21.30;;
18677;SDS011;9469;51.114;13.914;2023-02-28T23:13:08;34.90;;;20.33;;
18677;SDS011;9469;51.114;13.914;2023-02-28T23:18:16;32.50;;;20.60;;
18677;SDS011;9469;51.114;13.914;2023-02-28T23:23:21;32.40;;;19.70;;
18677;SDS011;9469;51.114;13.914;2023-02-28T23:28:26;32.57;;;20.50;;
18677;SDS011;9469;51.114;13.914;2023-02-28T23:33:34;30.87;;;18.30;;
18677;SDS011;9469;51.114;13.914;2023-02-28T23:38:40;31.43;;;20.33;;
18677;SDS011;9469;51.114;13.914;2023-02-28T23:43:45;36.07;;;19.90;;
18677;SDS011;9469;51.114;13.914;2023-02-28T23:48:54;29.37;;;18.57;;
18677;SDS011;9469;51.114;13.914;2023-02-28T23:53:59;29.77;;;18.63;;
18677;SDS011;9469;51.114;13.914;2023-02-28T23:59:05;27.10;;;18.33;;
